sensor_id;sensor_type;location;lat;lon;timestamp;pressure;altitude;pressure_sealevel;temperature;humidity
15444;BME280;7822;48.146;11.576;2023-06-10T00:01:44;94749.19;;;17.67;75.34
15444;BME280;7822;48.146;11.576;2023-06-10T00:04:13;94754.44;;;17.67;75.38
15444;BME280;7822;48.146;11.576;2023-06-10T00:06:42;94748.41;;;17.66;75.46
15444;BME280;7822;48.146;11.576;2023-06-10T00:09:11;94758.09;;;17.66;75.54
15444;BME280;7822;48.146;11.576;2023-06-10T00:11:41;94752.66;;;17.67;75.45
15444;BME280;7822;48.146;11.576;2023-06-10T00:14:08;94747.59;;;17.66;75.32
15444;BME280;7822;48.146;11.576;2023-06-10T00:16:36;94745.78;;;17.66;75.42
15444;BME280;7822;48.146;11.576;2023-06-10T00:19:05;94745.78;;;17.66;75.42
15444;BME280;7822;48.146;11.576;2023-06-10T00:21:34;94747.59;;;17.66;75.47
15444;BME280;7822;48.146;11.576;2023-06-10T00:24:04;94754.44;;;17.67;75.38
15444;BME280;7822;48.146;11.576;2023-06-10T00:26:33;94749.19;;;17.67;75.73
15444;BME280;7822;48.146;11.576;2023-06-10T00:29:00;94754.44;;;17.67;75.25
15444;BME280;7822;48.146;11.576;2023-06-10T00:31:28;94750.03;;;17.67;75.46
15444;BME280;7822;48.146;11.576;2023-06-10T00:33:56;94748.22;;;17.68;75.27
15444;BME280;7822;48.146;11.576;2023-06-10T00:36:25;94756.09;;;17.68;75.32
15444;BME280;7822;48.146;11.576;2023-06-10T00:38:52;94757.91;;;17.67;75.25
15444;BME280;7822;48.146;11.576;2023-06-10T00:41:20;94751.03;;;17.66;75.35
15444;BME280;7822;48.146;11.576;2023-06-10T00:43:49;94743.94;;;17.67;75.25
15444;BME280;7822;48.146;11.576;2023-06-10T00:46:16;94750.84;;;17.68;75.29
15444;BME280;7822;48.146;11.576;2023-06-10T00:48:45;94752.66;;;17.67;75.36
15444;BME280;7822;48.146;11.576;2023-06-10T00:51:13;94753.47;;;17.68;75.28
15444;BME280;7822;48.146;11.576;2023-06-10T00:53:41;94757.06;;;17.67;75.33
15444;BME280;7822;48.146;11.576;2023-06-10T00:56:08;94758.72;;;17.68;75.40
15444;BME280;7822;48.146;11.576;2023-06-10T00:58:36;94760.50;;;17.67;75.53
15444;BME280;7822;48.146;11.576;2023-06-10T01:01:05;94760.50;;;17.67;75.46
15444;BME280;7822;48.146;11.576;2023-06-10T01:03:33;94760.50;;;17.67;75.51
15444;BME280;7822;48.146;11.576;2023-06-10T01:06:06;94764.94;;;17.67;75.28
15444;BME280;7822;48.146;11.576;2023-06-10T01:08:35;94759.69;;;17.67;75.52
15444;BME280;7822;48.146;11.576;2023-06-10T01:11:07;94763.13;;;17.67;75.39
15444;BME280;7822;48.146;11.576;2023-06-10T01:13:36;94758.91;;;17.66;75.31
15444;BME280;7822;48.146;11.576;2023-06-10T01:16:08;94758.09;;;17.66;75.37
15444;BME280;7822;48.146;11.576;2023-06-10T01:18:36;94767.56;;;17.67;75.41
15444;BME280;7822;48.146;11.576;2023-06-10T01:21:05;94761.53;;;17.66;75.56
15444;BME280;7822;48.146;11.576;2023-06-10T01:23:35;94755.47;;;17.66;75.38
15444;BME280;7822;48.146;11.576;2023-06-10T01:26:03;94761.53;;;17.66;75.58
15444;BME280;7822;48.146;11.576;2023-06-10T01:28:36;94770.19;;;17.67;75.55
15444;BME280;7822;48.146;11.576;2023-06-10T01:31:07;94774.66;;;17.66;75.46
15444;BME280;7822;48.146;11.576;2023-06-10T01:33:39;94770.19;;;17.67;75.46
15444;BME280;7822;48.146;11.576;2023-06-10T01:36:09;94778.06;;;17.67;75.67
15444;BME280;7822;48.146;11.576;2023-06-10T01:38:39;94772.03;;;17.66;75.54
15444;BME280;7822;48.146;11.576;2023-06-10T01:41:07;94775.44;;;17.67;75.78
15444;BME280;7822;48.146;11.576;2023-06-10T01:43:37;94764.31;;;17.65;75.36
15444;BME280;7822;48.146;11.576;2023-06-10T01:46:04;94765.13;;;17.65;75.41
15444;BME280;7822;48.146;11.576;2023-06-10T01:48:33;94771.19;;;17.66;75.58
15444;BME280;7822;48.146;11.576;2023-06-10T01:51:01;94775.44;;;17.67;75.49
15444;BME280;7822;48.146;11.576;2023-06-10T01:53:28;94773.81;;;17.66;75.44
15444;BME280;7822;48.146;11.576;2023-06-10T01:55:57;94773.00;;;17.65;75.30
15444;BME280;7822;48.146;11.576;2023-06-10T01:58:24;94776.44;;;17.66;75.42
15444;BME280;7822;48.146;11.576;2023-06-10T02:00:52;94774.66;;;17.66;75.37
15444;BME280;7822;48.146;11.576;2023-06-10T02:03:29;94775.44;;;17.67;75.56
15444;BME280;7822;48.146;11.576;2023-06-10T02:05:57;94781.50;;;17.67;75.36
15444;BME280;7822;48.146;11.576;2023-06-10T02:08:24;94777.28;;;17.66;75.29
15444;BME280;7822;48.146;11.576;2023-06-10T02:10:53;94772.81;;;17.67;75.59
15444;BME280;7822;48.146;11.576;2023-06-10T02:13:21;94777.09;;;17.68;75.37
15444;BME280;7822;48.146;11.576;2023-06-10T02:15:48;94775.44;;;17.67;75.36
15444;BME280;7822;48.146;11.576;2023-06-10T02:18:16;94770.19;;;17.67;75.38
15444;BME280;7822;48.146;11.576;2023-06-10T02:20:48;94776.44;;;17.66;75.42
15444;BME280;7822;48.146;11.576;2023-06-10T02:23:15;94773.63;;;17.67;75.40
15444;BME280;7822;48.146;11.576;2023-06-10T02:25:43;94766.78;;;17.66;75.30
15444;BME280;7822;48.146;11.576;2023-06-10T02:28:11;94766.78;;;17.66;75.25
15444;BME280;7822;48.146;11.576;2023-06-10T02:30:38;94767.56;;;17.67;75.24
15444;BME280;7822;48.146;11.576;2023-06-10T02:33:06;94771.00;;;17.67;75.39
15444;BME280;7822;48.146;11.576;2023-06-10T02:35:36;94769.41;;;17.66;75.29
15444;BME280;7822;48.146;11.576;2023-06-10T02:38:05;94771.19;;;17.66;75.43
15444;BME280;7822;48.146;11.576;2023-06-10T02:40:32;94765.94;;;17.66;75.31
15444;BME280;7822;48.146;11.576;2023-06-10T02:43:00;94771.19;;;17.66;75.57
15444;BME280;7822;48.146;11.576;2023-06-10T02:45:27;94765.13;;;17.65;75.57
15444;BME280;7822;48.146;11.576;2023-06-10T02:47:55;94773.81;;;17.66;75.47
15444;BME280;7822;48.146;11.576;2023-06-10T02:50:22;94776.44;;;17.66;75.35
15444;BME280;7822;48.146;11.576;2023-06-10T02:52:50;94773.00;;;17.65;75.45
15444;BME280;7822;48.146;11.576;2023-06-10T02:55:19;94776.44;;;17.66;75.49
15444;BME280;7822;48.146;11.576;2023-06-10T02:57:46;94771.19;;;17.66;75.48
15444;BME280;7822;48.146;11.576;2023-06-10T03:00:14;94773.81;;;17.66;75.59
15444;BME280;7822;48.146;11.576;2023-06-10T03:02:42;94770.38;;;17.65;75.59
15444;BME280;7822;48.146;11.576;2023-06-10T03:05:12;94772.19;;;17.65;75.47
15444;BME280;7822;48.146;11.576;2023-06-10T03:07:39;94772.19;;;17.65;75.51
15444;BME280;7822;48.146;11.576;2023-06-10T03:10:07;94778.25;;;17.65;75.36
15444;BME280;7822;48.146;11.576;2023-06-10T03:12:36;94770.38;;;17.65;75.55
15444;BME280;7822;48.146;11.576;2023-06-10T03:15:04;94780.88;;;17.65;75.58
15444;BME280;7822;48.146;11.576;2023-06-10T03:17:32;94790.53;;;17.65;75.36
15444;BME280;7822;48.146;11.576;2023-06-10T03:20:00;94783.50;;;17.65;75.53
15444;BME280;7822;48.146;11.576;2023-06-10T03:22:28;94780.03;;;17.65;75.47
15444;BME280;7822;48.146;11.576;2023-06-10T03:24:56;94782.66;;;17.65;75.32
15444;BME280;7822;48.146;11.576;2023-06-10T03:27:24;94783.50;;;17.65;75.30
15444;BME280;7822;48.146;11.576;2023-06-10T03:29:56;94793.16;;;17.65;75.44
15444;BME280;7822;48.146;11.576;2023-06-10T03:32:24;94793.97;;;17.65;75.38
15444;BME280;7822;48.146;11.576;2023-06-10T03:34:51;94801.84;;;17.65;75.47
15444;BME280;7822;48.146;11.576;2023-06-10T03:37:24;94804.47;;;17.65;75.46
15444;BME280;7822;48.146;11.576;2023-06-10T03:39:51;94804.47;;;17.65;75.32
15444;BME280;7822;48.146;11.576;2023-06-10T03:42:19;94809.72;;;17.65;75.51
15444;BME280;7822;48.146;11.576;2023-06-10T03:44:47;94810.56;;;17.66;75.36
15444;BME280;7822;48.146;11.576;2023-06-10T03:47:16;94809.72;;;17.65;75.28
15444;BME280;7822;48.146;11.576;2023-06-10T03:49:43;94820.03;;;17.67;75.41
15444;BME280;7822;48.146;11.576;2023-06-10T03:52:11;94814.78;;;17.67;75.44
15444;BME280;7822;48.146;11.576;2023-06-10T03:54:38;94820.03;;;17.67;75.39
15444;BME280;7822;48.146;11.576;2023-06-10T03:57:06;94818.22;;;17.67;75.46
15444;BME280;7822;48.146;11.576;2023-06-10T03:59:33;94820.03;;;17.67;75.34
15444;BME280;7822;48.146;11.576;2023-06-10T04:02:01;94823.47;;;17.67;75.30
15444;BME280;7822;48.146;11.576;2023-06-10T04:04:29;94821.03;;;17.66;75.23
15444;BME280;7822;48.146;11.576;2023-06-10T04:06:57;94820.84;;;17.67;75.21
15444;BME280;7822;48.146;11.576;2023-06-10T04:09:25;94817.41;;;17.67;75.22
15444;BME280;7822;48.146;11.576;2023-06-10T04:11:52;94819.06;;;17.68;75.25
15444;BME280;7822;48.146;11.576;2023-06-10T04:14:20;94822.50;;;17.68;75.25
15444;BME280;7822;48.146;11.576;2023-06-10T04:16:47;94830.38;;;17.68;75.17
15444;BME280;7822;48.146;11.576;2023-06-10T04:19:16;94826.75;;;17.69;75.14
15444;BME280;7822;48.146;11.576;2023-06-10T04:21:45;94829.38;;;17.69;75.47
15444;BME280;7822;48.146;11.576;2023-06-10T04:24:13;94824.13;;;17.69;75.30
15444;BME280;7822;48.146;11.576;2023-06-10T04:26:40;94824.94;;;17.70;75.22
15444;BME280;7822;48.146;11.576;2023-06-10T04:29:08;94830.19;;;17.70;75.26
15444;BME280;7822;48.146;11.576;2023-06-10T04:31:36;94838.69;;;17.72;75.17
15444;BME280;7822;48.146;11.576;2023-06-10T04:34:03;94834.47;;;17.71;75.35
15444;BME280;7822;48.146;11.576;2023-06-10T04:36:31;94831.84;;;17.71;75.20
15444;BME280;7822;48.146;11.576;2023-06-10T04:39:00;94835.25;;;17.71;75.35
15444;BME280;7822;48.146;11.576;2023-06-10T04:41:27;94838.88;;;17.70;75.26
15444;BME280;7822;48.146;11.576;2023-06-10T04:43:55;94837.09;;;17.71;75.21
15444;BME280;7822;48.146;11.576;2023-06-10T04:46:22;94837.09;;;17.71;75.21
15444;BME280;7822;48.146;11.576;2023-06-10T04:48:50;94846.56;;;17.72;75.33
15444;BME280;7822;48.146;11.576;2023-06-10T04:51:17;94844.94;;;17.71;75.36
15444;BME280;7822;48.146;11.576;2023-06-10T04:53:45;94844.94;;;17.71;75.37
15444;BME280;7822;48.146;11.576;2023-06-10T04:56:14;94845.75;;;17.71;75.41
15444;BME280;7822;48.146;11.576;2023-06-10T04:58:42;94844.94;;;17.71;75.40
15444;BME280;7822;48.146;11.576;2023-06-10T05:01:09;94845.75;;;17.71;75.20
15444;BME280;7822;48.146;11.576;2023-06-10T05:03:37;94846.56;;;17.72;75.35
15444;BME280;7822;48.146;11.576;2023-06-10T05:06:05;94836.91;;;17.72;75.29
15444;BME280;7822;48.146;11.576;2023-06-10T05:08:32;94835.25;;;17.71;75.24
15444;BME280;7822;48.146;11.576;2023-06-10T05:11:00;94841.31;;;17.72;75.58
15444;BME280;7822;48.146;11.576;2023-06-10T05:13:29;94845.59;;;17.73;75.43
15444;BME280;7822;48.146;11.576;2023-06-10T05:15:57;94840.34;;;17.73;75.42
15444;BME280;7822;48.146;11.576;2023-06-10T05:18:24;94841.31;;;17.72;75.30
15444;BME280;7822;48.146;11.576;2023-06-10T05:20:52;94841.31;;;17.72;75.41
15444;BME280;7822;48.146;11.576;2023-06-10T05:23:20;94842.16;;;17.72;75.31
15444;BME280;7822;48.146;11.576;2023-06-10T05:25:48;94845.59;;;17.73;75.44
15444;BME280;7822;48.146;11.576;2023-06-10T05:28:15;94848.22;;;17.73;75.35
15444;BME280;7822;48.146;11.576;2023-06-10T05:30:44;94847.22;;;17.74;75.40
15444;BME280;7822;48.146;11.576;2023-06-10T05:33:12;94849.81;;;17.74;75.40
15444;BME280;7822;48.146;11.576;2023-06-10T05:35:39;94854.25;;;17.73;75.29
15444;BME280;7822;48.146;11.576;2023-06-10T05:38:07;94854.25;;;17.73;75.36
15444;BME280;7822;48.146;11.576;2023-06-10T05:40:35;94851.63;;;17.73;75.30
15444;BME280;7822;48.146;11.576;2023-06-10T05:43:02;94851.63;;;17.73;75.52
15444;BME280;7822;48.146;11.576;2023-06-10T05:45:30;94847.22;;;17.74;75.39
15444;BME280;7822;48.146;11.576;2023-06-10T05:47:58;94851.63;;;17.73;75.56
15444;BME280;7822;48.146;11.576;2023-06-10T05:50:26;94853.47;;;17.73;75.43
15444;BME280;7822;48.146;11.576;2023-06-10T05:52:54;94855.06;;;17.74;75.50
15444;BME280;7822;48.146;11.576;2023-06-10T05:55:21;94848.22;;;17.73;75.43
15444;BME280;7822;48.146;11.576;2023-06-10T05:57:57;94843.94;;;17.72;75.54
15444;BME280;7822;48.146;11.576;2023-06-10T06:00:25;94847.38;;;17.72;75.55
15444;BME280;7822;48.146;11.576;2023-06-10T06:02:53;94851.63;;;17.73;75.55
15444;BME280;7822;48.146;11.576;2023-06-10T06:08:10;94849.19;;;17.72;75.44
15444;BME280;7822;48.146;11.576;2023-06-10T06:10:37;94856.09;;;17.73;75.62
15444;BME280;7822;48.146;11.576;2023-06-10T06:13:05;94857.88;;;17.72;75.70
15444;BME280;7822;48.146;11.576;2023-06-10T06:15:32;94856.09;;;17.73;75.64
15444;BME280;7822;48.146;11.576;2023-06-10T06:18:00;94863.31;;;17.71;75.48
15444;BME280;7822;48.146;11.576;2023-06-10T06:20:28;94858.88;;;17.71;75.56
15444;BME280;7822;48.146;11.576;2023-06-10T06:22:55;94861.50;;;17.71;75.48
15444;BME280;7822;48.146;11.576;2023-06-10T06:25:24;94857.06;;;17.72;75.53
15444;BME280;7822;48.146;11.576;2023-06-10T06:27:51;94860.69;;;17.71;75.51
15444;BME280;7822;48.146;11.576;2023-06-10T06:30:19;94864.94;;;17.72;75.44
15444;BME280;7822;48.146;11.576;2023-06-10T06:32:46;94862.31;;;17.72;75.43
15444;BME280;7822;48.146;11.576;2023-06-10T06:35:14;94855.44;;;17.71;75.45
15444;BME280;7822;48.146;11.576;2023-06-10T06:37:42;94861.50;;;17.71;75.58
15444;BME280;7822;48.146;11.576;2023-06-10T06:40:09;94862.31;;;17.72;75.53
15444;BME280;7822;48.146;11.576;2023-06-10T06:42:38;94860.50;;;17.72;75.42
15444;BME280;7822;48.146;11.576;2023-06-10T06:45:06;94860.50;;;17.72;75.62
15444;BME280;7822;48.146;11.576;2023-06-10T06:47:34;94858.72;;;17.73;75.49
15444;BME280;7822;48.146;11.576;2023-06-10T06:50:02;94864.75;;;17.73;75.53
15444;BME280;7822;48.146;11.576;2023-06-10T06:52:29;94862.13;;;17.73;75.51
15444;BME280;7822;48.146;11.576;2023-06-10T06:54:57;94866.56;;;17.73;75.49
15444;BME280;7822;48.146;11.576;2023-06-10T06:57:24;94861.34;;;17.73;75.40
15444;BME280;7822;48.146;11.576;2023-06-10T06:59:53;94867.38;;;17.73;75.46
15444;BME280;7822;48.146;11.576;2023-06-10T07:02:21;94866.56;;;17.73;75.51
15444;BME280;7822;48.146;11.576;2023-06-10T07:04:49;94878.69;;;17.74;75.55
15444;BME280;7822;48.146;11.576;2023-06-10T07:07:16;94870.81;;;17.74;75.56
15444;BME280;7822;48.146;11.576;2023-06-10T07:09:44;94870.81;;;17.74;75.41
15444;BME280;7822;48.146;11.576;2023-06-10T07:12:11;94871.66;;;17.74;75.49
15444;BME280;7822;48.146;11.576;2023-06-10T07:14:39;94876.06;;;17.74;75.56
15444;BME280;7822;48.146;11.576;2023-06-10T07:17:08;94872.63;;;17.73;75.52
15444;BME280;7822;48.146;11.576;2023-06-10T07:19:36;94868.19;;;17.74;75.54
15444;BME280;7822;48.146;11.576;2023-06-10T07:22:03;94879.69;;;17.73;75.55
15444;BME280;7822;48.146;11.576;2023-06-10T07:24:31;94874.44;;;17.73;75.47
15444;BME280;7822;48.146;11.576;2023-06-10T07:26:58;94870.00;;;17.73;75.55
15444;BME280;7822;48.146;11.576;2023-06-10T07:29:26;94872.63;;;17.73;75.57
15444;BME280;7822;48.146;11.576;2023-06-10T07:31:53;94877.88;;;17.73;75.53
15444;BME280;7822;48.146;11.576;2023-06-10T07:34:22;94880.50;;;17.73;75.49
15444;BME280;7822;48.146;11.576;2023-06-10T07:36:50;94876.25;;;17.72;75.60
15444;BME280;7822;48.146;11.576;2023-06-10T07:39:17;94877.88;;;17.73;75.72
15444;BME280;7822;48.146;11.576;2023-06-10T07:41:45;94876.25;;;17.72;75.65
15444;BME280;7822;48.146;11.576;2023-06-10T07:44:12;94874.44;;;17.73;75.57
15444;BME280;7822;48.146;11.576;2023-06-10T07:46:40;94874.44;;;17.73;75.52
15444;BME280;7822;48.146;11.576;2023-06-10T07:49:07;94868.38;;;17.72;75.49
15444;BME280;7822;48.146;11.576;2023-06-10T07:51:36;94871.00;;;17.72;75.52
15444;BME280;7822;48.146;11.576;2023-06-10T07:54:04;94863.13;;;17.72;75.79
15444;BME280;7822;48.146;11.576;2023-06-10T07:56:31;94864.94;;;17.72;75.57
15444;BME280;7822;48.146;11.576;2023-06-10T07:58:59;94866.56;;;17.73;75.70
15444;BME280;7822;48.146;11.576;2023-06-10T08:01:26;94869.19;;;17.73;75.58
15444;BME280;7822;48.146;11.576;2023-06-10T08:03:54;94871.00;;;17.72;75.70
15444;BME280;7822;48.146;11.576;2023-06-10T08:06:21;94858.72;;;17.73;75.55
15444;BME280;7822;48.146;11.576;2023-06-10T08:08:50;94865.75;;;17.72;75.46
15444;BME280;7822;48.146;11.576;2023-06-10T08:11:18;94867.38;;;17.73;75.57
15444;BME280;7822;48.146;11.576;2023-06-10T08:13:45;94871.81;;;17.73;75.32
15444;BME280;7822;48.146;11.576;2023-06-10T08:16:13;94870.00;;;17.73;75.61
15444;BME280;7822;48.146;11.576;2023-06-10T08:18:40;94863.97;;;17.73;75.62
15444;BME280;7822;48.146;11.576;2023-06-10T08:21:08;94872.63;;;17.73;75.66
15444;BME280;7822;48.146;11.576;2023-06-10T08:23:35;94870.81;;;17.74;75.44
15444;BME280;7822;48.146;11.576;2023-06-10T08:26:04;94870.00;;;17.73;75.56
15444;BME280;7822;48.146;11.576;2023-06-10T08:28:32;94873.44;;;17.74;75.54
15444;BME280;7822;48.146;11.576;2023-06-10T08:30:59;94873.44;;;17.74;75.61
15444;BME280;7822;48.146;11.576;2023-06-10T08:33:27;94868.19;;;17.74;75.62
15444;BME280;7822;48.146;11.576;2023-06-10T08:35:54;94868.19;;;17.74;75.56
15444;BME280;7822;48.146;11.576;2023-06-10T08:38:22;94878.69;;;17.74;75.67
15444;BME280;7822;48.146;11.576;2023-06-10T08:40:50;94864.75;;;17.73;75.52
15444;BME280;7822;48.146;11.576;2023-06-10T08:43:25;94861.16;;;17.74;75.49
15444;BME280;7822;48.146;11.576;2023-06-10T08:45:59;94862.94;;;17.74;75.53
15444;BME280;7822;48.146;11.576;2023-06-10T08:48:28;94864.75;;;17.73;75.58
15444;BME280;7822;48.146;11.576;2023-06-10T08:50:56;94876.88;;;17.74;75.49
15444;BME280;7822;48.146;11.576;2023-06-10T08:53:24;94874.25;;;17.74;75.55
15444;BME280;7822;48.146;11.576;2023-06-10T08:55:53;94866.41;;;17.74;75.55
15444;BME280;7822;48.146;11.576;2023-06-10T08:58:24;94860.31;;;17.74;75.66
15444;BME280;7822;48.146;11.576;2023-06-10T09:00:53;94860.31;;;17.74;75.62
15444;BME280;7822;48.146;11.576;2023-06-10T09:03:20;94859.50;;;17.73;75.65
15444;BME280;7822;48.146;11.576;2023-06-10T09:05:48;94865.56;;;17.74;75.76
15444;BME280;7822;48.146;11.576;2023-06-10T09:08:16;94868.19;;;17.74;75.55
15444;BME280;7822;48.146;11.576;2023-06-10T09:10:44;94861.16;;;17.74;75.76
15444;BME280;7822;48.146;11.576;2023-06-10T09:13:11;94862.94;;;17.74;75.49
15444;BME280;7822;48.146;11.576;2023-06-10T09:15:43;94865.56;;;17.74;75.73
15444;BME280;7822;48.146;11.576;2023-06-10T09:18:12;94863.78;;;17.74;75.52
15444;BME280;7822;48.146;11.576;2023-06-10T09:20:39;94856.88;;;17.73;75.61
15444;BME280;7822;48.146;11.576;2023-06-10T09:23:07;94862.13;;;17.73;75.42
15444;BME280;7822;48.146;11.576;2023-06-10T09:25:35;94860.50;;;17.72;75.53
15444;BME280;7822;48.146;11.576;2023-06-10T09:28:03;94863.97;;;17.73;75.70
15444;BME280;7822;48.146;11.576;2023-06-10T09:30:31;94867.38;;;17.73;75.65
15444;BME280;7822;48.146;11.576;2023-06-10T09:33:01;94864.94;;;17.72;75.58
15444;BME280;7822;48.146;11.576;2023-06-10T09:35:30;94863.13;;;17.72;75.75
15444;BME280;7822;48.146;11.576;2023-06-10T09:37:59;94871.00;;;17.72;75.57
15444;BME280;7822;48.146;11.576;2023-06-10T09:40:27;94859.69;;;17.72;75.60
15444;BME280;7822;48.146;11.576;2023-06-10T09:42:55;94864.94;;;17.72;75.76
15444;BME280;7822;48.146;11.576;2023-06-10T09:45:23;94863.13;;;17.72;75.65
15444;BME280;7822;48.146;11.576;2023-06-10T09:47:53;94861.34;;;17.73;75.62
15444;BME280;7822;48.146;11.576;2023-06-10T09:50:23;94869.19;;;17.73;75.54
15444;BME280;7822;48.146;11.576;2023-06-10T09:52:51;94870.19;;;17.72;75.63
15444;BME280;7822;48.146;11.576;2023-06-10T09:55:18;94863.97;;;17.73;75.67
15444;BME280;7822;48.146;11.576;2023-06-10T09:57:48;94869.19;;;17.73;75.81
15444;BME280;7822;48.146;11.576;2023-06-10T10:00:16;94863.97;;;17.73;75.57
15444;BME280;7822;48.146;11.576;2023-06-10T10:02:45;94863.97;;;17.73;75.64
15444;BME280;7822;48.146;11.576;2023-06-10T10:05:14;94866.56;;;17.73;75.65
15444;BME280;7822;48.146;11.576;2023-06-10T10:07:44;94871.00;;;17.72;75.78
15444;BME280;7822;48.146;11.576;2023-06-10T10:10:12;94861.34;;;17.73;75.61
15444;BME280;7822;48.146;11.576;2023-06-10T10:12:41;94869.19;;;17.73;75.70
15444;BME280;7822;48.146;11.576;2023-06-10T10:15:09;94866.56;;;17.73;75.69
15444;BME280;7822;48.146;11.576;2023-06-10T10:17:38;94870.00;;;17.73;75.69
15444;BME280;7822;48.146;11.576;2023-06-10T10:20:08;94869.19;;;17.73;75.72
15444;BME280;7822;48.146;11.576;2023-06-10T10:22:37;94870.81;;;17.74;75.63
15444;BME280;7822;48.146;11.576;2023-06-10T10:25:07;94861.34;;;17.73;75.83
15444;BME280;7822;48.146;11.576;2023-06-10T10:27:40;94863.97;;;17.73;75.68
15444;BME280;7822;48.146;11.576;2023-06-10T10:30:10;94871.00;;;17.72;75.79
15444;BME280;7822;48.146;11.576;2023-06-10T10:32:39;94865.75;;;17.72;75.82
15444;BME280;7822;48.146;11.576;2023-06-10T10:35:10;94868.38;;;17.72;75.60
15444;BME280;7822;48.146;11.576;2023-06-10T10:37:39;94862.13;;;17.73;75.84
15444;BME280;7822;48.146;11.576;2023-06-10T10:40:09;94862.31;;;17.72;75.71
15444;BME280;7822;48.146;11.576;2023-06-10T10:42:37;94863.13;;;17.72;75.75
15444;BME280;7822;48.146;11.576;2023-06-10T10:45:06;94854.44;;;17.72;75.80
15444;BME280;7822;48.146;11.576;2023-06-10T10:47:35;94852.81;;;17.71;75.62
15444;BME280;7822;48.146;11.576;2023-06-10T10:50:12;94870.19;;;17.72;75.61
15444;BME280;7822;48.146;11.576;2023-06-10T10:52:46;94863.13;;;17.72;75.68
15444;BME280;7822;48.146;11.576;2023-06-10T10:55:19;94851.81;;;17.72;75.79
15444;BME280;7822;48.146;11.576;2023-06-10T10:57:53;94856.25;;;17.71;75.72
15444;BME280;7822;48.146;11.576;2023-06-10T11:00:24;94857.06;;;17.72;75.75
15444;BME280;7822;48.146;11.576;2023-06-10T11:02:52;94844.94;;;17.71;75.67
15444;BME280;7822;48.146;11.576;2023-06-10T11:05:30;94849.38;;;17.70;75.74
15444;BME280;7822;48.146;11.576;2023-06-10T11:07:58;94853.63;;;17.71;75.61
15444;BME280;7822;48.146;11.576;2023-06-10T11:10:30;94850.19;;;17.71;75.64
15444;BME280;7822;48.146;11.576;2023-06-10T11:12:58;94852.81;;;17.71;75.61
15444;BME280;7822;48.146;11.576;2023-06-10T11:15:26;94851.00;;;17.71;75.73
15444;BME280;7822;48.146;11.576;2023-06-10T11:18:11;94858.06;;;17.71;75.75
15444;BME280;7822;48.146;11.576;2023-06-10T11:20:45;94853.63;;;17.71;75.61
15444;BME280;7822;48.146;11.576;2023-06-10T11:23:24;94854.44;;;17.72;75.64
15444;BME280;7822;48.146;11.576;2023-06-10T11:28:36;94854.63;;;17.70;75.74
15444;BME280;7822;48.146;11.576;2023-06-10T11:31:03;94851.00;;;17.71;75.92
15444;BME280;7822;48.146;11.576;2023-06-10T11:33:31;94853.47;;;17.73;75.77
15444;BME280;7822;48.146;11.576;2023-06-10T11:35:59;94852.63;;;17.72;75.71
15444;BME280;7822;48.146;11.576;2023-06-10T11:38:26;94844.75;;;17.72;75.78
15444;BME280;7822;48.146;11.576;2023-06-10T11:40:55;94848.22;;;17.73;75.77
15444;BME280;7822;48.146;11.576;2023-06-10T11:43:23;94847.38;;;17.72;75.79
15444;BME280;7822;48.146;11.576;2023-06-10T11:45:55;94837.72;;;17.73;75.78
15444;BME280;7822;48.146;11.576;2023-06-10T11:48:23;94842.16;;;17.72;75.66
15444;BME280;7822;48.146;11.576;2023-06-10T11:50:52;94839.53;;;17.72;75.63
15444;BME280;7822;48.146;11.576;2023-06-10T11:53:19;94839.53;;;17.72;75.59
15444;BME280;7822;48.146;11.576;2023-06-10T11:55:47;94832.47;;;17.73;75.77
15444;BME280;7822;48.146;11.576;2023-06-10T11:58:15;94838.50;;;17.73;75.67
15444;BME280;7822;48.146;11.576;2023-06-10T12:00:44;94838.50;;;17.73;75.79
15444;BME280;7822;48.146;11.576;2023-06-10T12:03:13;94838.50;;;17.73;75.70
15444;BME280;7822;48.146;11.576;2023-06-10T12:05:42;94831.47;;;17.74;75.73
15444;BME280;7822;48.146;11.576;2023-06-10T12:08:24;94832.28;;;17.74;75.75
15444;BME280;7822;48.146;11.576;2023-06-10T12:10:51;94827.03;;;17.74;75.67
15444;BME280;7822;48.146;11.576;2023-06-10T12:13:19;94824.41;;;17.74;75.59
15444;BME280;7822;48.146;11.576;2023-06-10T12:15:47;94822.63;;;17.75;75.70
15444;BME280;7822;48.146;11.576;2023-06-10T12:18:19;94816.53;;;17.74;75.66
15444;BME280;7822;48.146;11.576;2023-06-10T12:20:47;94821.78;;;17.74;75.72
15444;BME280;7822;48.146;11.576;2023-06-10T12:23:15;94830.50;;;17.75;75.74
15444;BME280;7822;48.146;11.576;2023-06-10T12:25:49;94822.63;;;17.75;75.65
15444;BME280;7822;48.146;11.576;2023-06-10T12:28:18;94816.53;;;17.74;75.61
15444;BME280;7822;48.146;11.576;2023-06-10T12:30:47;94812.94;;;17.75;75.58
15444;BME280;7822;48.146;11.576;2023-06-10T12:33:16;94822.63;;;17.75;75.65
15444;BME280;7822;48.146;11.576;2023-06-10T12:35:48;94826.84;;;17.76;75.59
15444;BME280;7822;48.146;11.576;2023-06-10T12:38:20;94825.25;;;17.75;75.69
15444;BME280;7822;48.146;11.576;2023-06-10T12:40:48;94819.16;;;17.74;75.71
15444;BME280;7822;48.146;11.576;2023-06-10T12:43:19;94819.16;;;17.74;75.76
15444;BME280;7822;48.146;11.576;2023-06-10T12:45:46;94817.38;;;17.75;75.67
15444;BME280;7822;48.146;11.576;2023-06-10T12:48:17;94813.91;;;17.74;75.75
15444;BME280;7822;48.146;11.576;2023-06-10T12:50:46;94804.25;;;17.75;75.73
15444;BME280;7822;48.146;11.576;2023-06-10T12:53:15;94802.44;;;17.75;75.65
15444;BME280;7822;48.146;11.576;2023-06-10T12:55:43;94811.28;;;17.74;75.74
15444;BME280;7822;48.146;11.576;2023-06-10T12:58:11;94796.38;;;17.75;75.74
15444;BME280;7822;48.146;11.576;2023-06-10T13:00:39;94807.69;;;17.75;75.61
15444;BME280;7822;48.146;11.576;2023-06-10T13:03:08;94799.81;;;17.75;75.64
15444;BME280;7822;48.146;11.576;2023-06-10T13:05:36;94790.31;;;17.74;75.70
15444;BME280;7822;48.146;11.576;2023-06-10T13:08:05;94790.94;;;17.76;75.71
15444;BME280;7822;48.146;11.576;2023-06-10T13:10:34;94794.56;;;17.75;75.84
15444;BME280;7822;48.146;11.576;2023-06-10T13:13:02;94791.94;;;17.75;75.70